sensor_id;sensor_type;location;lat;lon;timestamp;P1;durP1;ratioP1;P2;durP2;ratioP2
45392;SDS011;31129;44.810;10.334;2023-03-23T00:01:48;3.47;;;1.65;;
45392;SDS011;31129;44.810;10.334;2023-03-23T00:04:17;2.60;;;1.95;;
45392;SDS011;31129;44.810;10.334;2023-03-23T00:06:43;2.40;;;1.77;;
45392;SDS011;31129;44.810;10.334;2023-03-23T00:09:11;3.60;;;1.90;;
45392;SDS011;31129;44.810;10.334;2023-03-23T00:11:40;4.88;;;1.75;;
45392;SDS011;31129;44.810;10.334;2023-03-23T00:14:06;4.68;;;1.70;;
45392;SDS011;31129;44.810;10.334;2023-03-23T00:16:38;2.83;;;1.73;;
45392;SDS011;31129;44.810;10.334;2023-03-23T00:21:38;3.33;;;1.70;;
45392;SDS011;31129;44.810;10.334;2023-03-23T00:24:06;3.55;;;1.80;;
45392;SDS011;31129;44.810;10.334;2023-03-23T00:26:32;2.90;;;1.60;;
45392;SDS011;31129;44.810;10.334;2023-03-23T00:29:03;3.22;;;1.90;;
45392;SDS011;31129;44.810;10.334;2023-03-23T00:31:29;6.47;;;1.80;;
45392;SDS011;31129;44.810;10.334;2023-03-23T00:33:57;4.82;;;1.88;;
45392;SDS011;31129;44.810;10.334;2023-03-23T00:36:23;5.22;;;1.83;;
45392;SDS011;31129;44.810;10.334;2023-03-23T00:38:49;4.45;;;1.60;;
45392;SDS011;31129;44.810;10.334;2023-03-23T00:41:14;2.63;;;1.52;;
45392;SDS011;31129;44.810;10.334;2023-03-23T00:43:40;3.20;;;1.52;;
45392;SDS011;31129;44.810;10.334;2023-03-23T00:46:05;2.90;;;1.75;;
45392;SDS011;31129;44.810;10.334;2023-03-23T00:48:35;3.88;;;1.60;;
45392;SDS011;31129;44.810;10.334;2023-03-23T00:51:06;3.75;;;1.60;;
45392;SDS011;31129;44.810;10.334;2023-03-23T00:53:37;4.88;;;1.48;;
45392;SDS011;31129;44.810;10.334;2023-03-23T00:56:06;2.47;;;1.42;;
45392;SDS011;31129;44.810;10.334;2023-03-23T00:58:32;6.82;;;1.45;;
45392;SDS011;31129;44.810;10.334;2023-03-23T01:00:58;2.28;;;1.70;;
45392;SDS011;31129;44.810;10.334;2023-03-23T01:03:23;2.15;;;1.25;;
45392;SDS011;31129;44.810;10.334;2023-03-23T01:05:53;4.40;;;1.30;;
45392;SDS011;31129;44.810;10.334;2023-03-23T01:08:20;2.88;;;1.30;;
45392;SDS011;31129;44.810;10.334;2023-03-23T01:10:46;4.50;;;1.48;;
45392;SDS011;31129;44.810;10.334;2023-03-23T01:13:12;5.30;;;1.58;;
45392;SDS011;31129;44.810;10.334;2023-03-23T01:15:37;3.78;;;1.45;;
45392;SDS011;31129;44.810;10.334;2023-03-23T01:18:04;3.15;;;1.50;;
45392;SDS011;31129;44.810;10.334;2023-03-23T01:20:29;9.25;;;1.85;;
45392;SDS011;31129;44.810;10.334;2023-03-23T01:22:59;3.08;;;1.58;;
45392;SDS011;31129;44.810;10.334;2023-03-23T01:25:28;2.25;;;1.73;;
45392;SDS011;31129;44.810;10.334;2023-03-23T01:27:57;5.72;;;1.35;;
45392;SDS011;31129;44.810;10.334;2023-03-23T01:30:24;3.63;;;1.70;;
45392;SDS011;31129;44.810;10.334;2023-03-23T01:32:50;2.92;;;1.65;;
45392;SDS011;31129;44.810;10.334;2023-03-23T01:35:15;7.93;;;1.65;;
45392;SDS011;31129;44.810;10.334;2023-03-23T01:37:41;4.82;;;1.75;;
45392;SDS011;31129;44.810;10.334;2023-03-23T01:40:07;4.47;;;1.90;;
45392;SDS011;31129;44.810;10.334;2023-03-23T01:42:34;6.80;;;1.60;;
45392;SDS011;31129;44.810;10.334;2023-03-23T01:47:51;5.80;;;1.88;;
45392;SDS011;31129;44.810;10.334;2023-03-23T01:50:25;3.78;;;1.73;;
45392;SDS011;31129;44.810;10.334;2023-03-23T01:52:53;4.50;;;1.98;;
45392;SDS011;31129;44.810;10.334;2023-03-23T01:55:21;6.15;;;2.10;;
45392;SDS011;31129;44.810;10.334;2023-03-23T01:57:49;7.78;;;2.17;;
45392;SDS011;31129;44.810;10.334;2023-03-23T02:00:16;8.40;;;1.90;;
45392;SDS011;31129;44.810;10.334;2023-03-23T02:02:50;5.68;;;2.05;;
45392;SDS011;31129;44.810;10.334;2023-03-23T02:05:22;4.63;;;2.00;;
45392;SDS011;31129;44.810;10.334;2023-03-23T02:07:54;6.95;;;2.00;;
45392;SDS011;31129;44.810;10.334;2023-03-23T02:10:25;4.93;;;2.25;;
45392;SDS011;31129;44.810;10.334;2023-03-23T02:12:50;4.95;;;2.00;;
45392;SDS011;31129;44.810;10.334;2023-03-23T02:15:16;4.53;;;2.75;;
45392;SDS011;31129;44.810;10.334;2023-03-23T02:17:48;11.60;;;2.58;;
45392;SDS011;31129;44.810;10.334;2023-03-23T02:23:11;3.97;;;2.08;;
45392;SDS011;31129;44.810;10.334;2023-03-23T02:36:28;5.35;;;2.70;;
45392;SDS011;31129;44.810;10.334;2023-03-23T02:39:09;5.97;;;2.42;;
45392;SDS011;31129;44.810;10.334;2023-03-23T02:42:24;7.40;;;2.95;;
45392;SDS011;31129;44.810;10.334;2023-03-23T02:44:33;3.42;;;2.13;;
45392;SDS011;31129;44.810;10.334;2023-03-23T02:47:02;3.97;;;2.60;;
45392;SDS011;31129;44.810;10.334;2023-03-23T02:49:31;3.78;;;2.20;;
45392;SDS011;31129;44.810;10.334;2023-03-23T02:51:59;5.25;;;2.20;;
45392;SDS011;31129;44.810;10.334;2023-03-23T02:54:28;2.97;;;2.40;;
45392;SDS011;31129;44.810;10.334;2023-03-23T02:56:54;3.05;;;2.40;;
45392;SDS011;31129;44.810;10.334;2023-03-23T02:59:26;4.00;;;2.20;;
45392;SDS011;31129;44.810;10.334;2023-03-23T03:02:14;5.57;;;2.45;;
45392;SDS011;31129;44.810;10.334;2023-03-23T03:04:46;4.53;;;2.35;;
45392;SDS011;31129;44.810;10.334;2023-03-23T03:07:29;3.50;;;2.17;;
45392;SDS011;31129;44.810;10.334;2023-03-23T03:10:10;4.30;;;2.30;;
45392;SDS011;31129;44.810;10.334;2023-03-23T03:15:29;5.05;;;2.33;;
45392;SDS011;31129;44.810;10.334;2023-03-23T03:18:09;2.92;;;2.00;;
45392;SDS011;31129;44.810;10.334;2023-03-23T03:20:42;3.85;;;2.10;;
45392;SDS011;31129;44.810;10.334;2023-03-23T03:23:14;4.03;;;2.22;;
45392;SDS011;31129;44.810;10.334;2023-03-23T03:25:43;7.18;;;2.30;;
45392;SDS011;31129;44.810;10.334;2023-03-23T03:28:15;5.25;;;2.15;;
45392;SDS011;31129;44.810;10.334;2023-03-23T03:30:51;4.93;;;2.20;;
45392;SDS011;31129;44.810;10.334;2023-03-23T03:33:20;3.72;;;2.10;;
45392;SDS011;31129;44.810;10.334;2023-03-23T03:35:53;5.97;;;3.17;;
45392;SDS011;31129;44.810;10.334;2023-03-23T03:40:45;10.13;;;5.57;;
45392;SDS011;31129;44.810;10.334;2023-03-23T03:43:11;16.05;;;5.78;;
45392;SDS011;31129;44.810;10.334;2023-03-23T03:45:36;14.98;;;7.47;;
45392;SDS011;31129;44.810;10.334;2023-03-23T03:48:02;17.38;;;8.07;;
45392;SDS011;31129;44.810;10.334;2023-03-23T03:50:29;16.02;;;8.52;;
45392;SDS011;31129;44.810;10.334;2023-03-23T03:52:55;17.58;;;9.25;;
45392;SDS011;31129;44.810;10.334;2023-03-23T03:55:20;16.50;;;9.25;;
45392;SDS011;31129;44.810;10.334;2023-03-23T03:57:50;19.05;;;9.98;;
45392;SDS011;31129;44.810;10.334;2023-03-23T04:00:44;21.02;;;10.27;;
45392;SDS011;31129;44.810;10.334;2023-03-23T04:03:13;24.73;;;11.48;;
45392;SDS011;31129;44.810;10.334;2023-03-23T04:05:48;23.50;;;10.60;;
45392;SDS011;31129;44.810;10.334;2023-03-23T04:08:13;20.45;;;10.90;;
45392;SDS011;31129;44.810;10.334;2023-03-23T04:10:39;27.65;;;12.75;;
45392;SDS011;31129;44.810;10.334;2023-03-23T04:13:06;21.40;;;10.63;;
45392;SDS011;31129;44.810;10.334;2023-03-23T04:16:07;24.27;;;11.43;;
45392;SDS011;31129;44.810;10.334;2023-03-23T04:18:34;28.40;;;12.88;;
45392;SDS011;31129;44.810;10.334;2023-03-23T04:21:00;22.35;;;11.48;;
45392;SDS011;31129;44.810;10.334;2023-03-23T04:23:28;24.60;;;11.93;;
45392;SDS011;31129;44.810;10.334;2023-03-23T04:25:55;28.95;;;11.93;;
45392;SDS011;31129;44.810;10.334;2023-03-23T04:28:27;27.83;;;11.43;;
45392;SDS011;31129;44.810;10.334;2023-03-23T04:31:26;23.20;;;11.38;;
45392;SDS011;31129;44.810;10.334;2023-03-23T04:34:00;27.30;;;11.68;;
45392;SDS011;31129;44.810;10.334;2023-03-23T04:36:31;27.20;;;13.00;;
45392;SDS011;31129;44.810;10.334;2023-03-23T04:39:02;22.95;;;11.32;;
45392;SDS011;31129;44.810;10.334;2023-03-23T04:41:29;23.07;;;11.77;;
45392;SDS011;31129;44.810;10.334;2023-03-23T04:44:13;20.90;;;12.13;;
45392;SDS011;31129;44.810;10.334;2023-03-23T04:46:45;24.35;;;12.75;;
45392;SDS011;31129;44.810;10.334;2023-03-23T04:49:15;28.00;;;13.90;;
45392;SDS011;31129;44.810;10.334;2023-03-23T04:51:50;28.10;;;14.75;;
45392;SDS011;31129;44.810;10.334;2023-03-23T04:54:23;25.00;;;13.55;;
45392;SDS011;31129;44.810;10.334;2023-03-23T04:56:53;28.50;;;14.38;;
45392;SDS011;31129;44.810;10.334;2023-03-23T04:59:24;28.38;;;13.52;;
45392;SDS011;31129;44.810;10.334;2023-03-23T05:02:18;31.42;;;13.30;;
45392;SDS011;31129;44.810;10.334;2023-03-23T05:04:45;26.00;;;12.93;;
45392;SDS011;31129;44.810;10.334;2023-03-23T05:07:14;22.80;;;12.75;;
45392;SDS011;31129;44.810;10.334;2023-03-23T05:09:47;27.05;;;12.93;;
45392;SDS011;31129;44.810;10.334;2023-03-23T05:12:13;26.08;;;13.10;;
45392;SDS011;31129;44.810;10.334;2023-03-23T05:14:50;27.95;;;13.73;;
45392;SDS011;31129;44.810;10.334;2023-03-23T05:17:18;28.42;;;13.30;;
45392;SDS011;31129;44.810;10.334;2023-03-23T05:19:45;24.13;;;13.33;;
45392;SDS011;31129;44.810;10.334;2023-03-23T05:22:35;27.58;;;13.80;;
45392;SDS011;31129;44.810;10.334;2023-03-23T05:25:02;25.45;;;12.02;;
45392;SDS011;31129;44.810;10.334;2023-03-23T05:27:32;26.80;;;12.05;;
45392;SDS011;31129;44.810;10.334;2023-03-23T05:30:02;22.05;;;12.70;;
45392;SDS011;31129;44.810;10.334;2023-03-23T05:32:30;23.83;;;13.25;;
45392;SDS011;31129;44.810;10.334;2023-03-23T05:35:01;23.30;;;13.60;;
45392;SDS011;31129;44.810;10.334;2023-03-23T05:37:28;30.93;;;12.93;;
45392;SDS011;31129;44.810;10.334;2023-03-23T05:40:05;28.48;;;14.05;;
45392;SDS011;31129;44.810;10.334;2023-03-23T05:42:42;23.73;;;13.07;;
45392;SDS011;31129;44.810;10.334;2023-03-23T05:45:12;31.35;;;12.80;;
45392;SDS011;31129;44.810;10.334;2023-03-23T05:47:39;23.92;;;13.07;;
45392;SDS011;31129;44.810;10.334;2023-03-23T05:50:10;20.58;;;12.40;;
45392;SDS011;31129;44.810;10.334;2023-03-23T05:52:36;19.30;;;12.32;;
45392;SDS011;31129;44.810;10.334;2023-03-23T05:55:05;21.73;;;11.80;;
45392;SDS011;31129;44.810;10.334;2023-03-23T05:57:34;29.35;;;12.05;;
45392;SDS011;31129;44.810;10.334;2023-03-23T06:00:04;24.05;;;11.48;;
45392;SDS011;31129;44.810;10.334;2023-03-23T06:02:41;23.00;;;11.70;;
45392;SDS011;31129;44.810;10.334;2023-03-23T06:05:14;24.45;;;11.98;;
45392;SDS011;31129;44.810;10.334;2023-03-23T06:07:46;24.08;;;12.23;;
45392;SDS011;31129;44.810;10.334;2023-03-23T06:10:11;18.58;;;11.32;;
45392;SDS011;31129;44.810;10.334;2023-03-23T06:12:38;24.27;;;12.13;;
45392;SDS011;31129;44.810;10.334;2023-03-23T06:15:10;22.17;;;12.48;;
45392;SDS011;31129;44.810;10.334;2023-03-23T06:17:55;23.70;;;11.68;;
45392;SDS011;31129;44.810;10.334;2023-03-23T06:20:28;20.63;;;12.05;;
45392;SDS011;31129;44.810;10.334;2023-03-23T06:22:55;27.15;;;13.93;;
45392;SDS011;31129;44.810;10.334;2023-03-23T06:25:27;28.80;;;14.48;;
45392;SDS011;31129;44.810;10.334;2023-03-23T06:27:53;26.30;;;14.30;;
45392;SDS011;31129;44.810;10.334;2023-03-23T06:30:20;28.45;;;14.25;;
45392;SDS011;31129;44.810;10.334;2023-03-23T06:32:45;27.67;;;14.40;;
45392;SDS011;31129;44.810;10.334;2023-03-23T06:35:13;32.58;;;14.57;;
45392;SDS011;31129;44.810;10.334;2023-03-23T06:37:48;22.77;;;13.27;;
45392;SDS011;31129;44.810;10.334;2023-03-23T06:40:27;27.13;;;13.07;;
45392;SDS011;31129;44.810;10.334;2023-03-23T06:42:58;23.45;;;12.40;;
45392;SDS011;31129;44.810;10.334;2023-03-23T06:45:47;26.15;;;12.27;;
45392;SDS011;31129;44.810;10.334;2023-03-23T06:48:31;18.15;;;10.43;;
45392;SDS011;31129;44.810;10.334;2023-03-23T06:50:58;19.15;;;10.82;;
45392;SDS011;31129;44.810;10.334;2023-03-23T06:53:25;18.38;;;11.82;;
45392;SDS011;31129;44.810;10.334;2023-03-23T06:55:53;20.45;;;10.50;;
45392;SDS011;31129;44.810;10.334;2023-03-23T06:58:18;21.55;;;10.30;;
45392;SDS011;31129;44.810;10.334;2023-03-23T07:00:44;15.20;;;9.77;;
45392;SDS011;31129;44.810;10.334;2023-03-23T07:03:13;24.23;;;11.10;;
45392;SDS011;31129;44.810;10.334;2023-03-23T07:05:42;18.58;;;10.75;;
45392;SDS011;31129;44.810;10.334;2023-03-23T07:08:11;28.08;;;12.75;;
45392;SDS011;31129;44.810;10.334;2023-03-23T07:10:52;24.75;;;12.20;;
45392;SDS011;31129;44.810;10.334;2023-03-23T07:13:22;20.95;;;10.85;;
45392;SDS011;31129;44.810;10.334;2023-03-23T07:15:52;20.77;;;11.30;;
45392;SDS011;31129;44.810;10.334;2023-03-23T07:18:18;17.92;;;9.77;;
45392;SDS011;31129;44.810;10.334;2023-03-23T07:20:47;24.50;;;11.65;;
45392;SDS011;31129;44.810;10.334;2023-03-23T07:23:15;22.73;;;12.38;;
45392;SDS011;31129;44.810;10.334;2023-03-23T07:25:45;23.20;;;11.10;;
45392;SDS011;31129;44.810;10.334;2023-03-23T07:28:17;18.88;;;10.50;;
45392;SDS011;31129;44.810;10.334;2023-03-23T07:30:44;21.63;;;11.82;;
45392;SDS011;31129;44.810;10.334;2023-03-23T07:33:09;21.77;;;10.82;;
45392;SDS011;31129;44.810;10.334;2023-03-23T07:35:36;21.65;;;12.27;;
45392;SDS011;31129;44.810;10.334;2023-03-23T07:38:06;22.42;;;12.68;;
45392;SDS011;31129;44.810;10.334;2023-03-23T07:40:33;21.48;;;12.35;;
45392;SDS011;31129;44.810;10.334;2023-03-23T07:43:04;23.08;;;11.27;;
45392;SDS011;31129;44.810;10.334;2023-03-23T07:45:52;25.83;;;13.15;;
45392;SDS011;31129;44.810;10.334;2023-03-23T07:48:21;22.08;;;12.88;;
45392;SDS011;31129;44.810;10.334;2023-03-23T07:50:47;31.00;;;14.25;;
45392;SDS011;31129;44.810;10.334;2023-03-23T07:53:14;24.83;;;13.05;;
45392;SDS011;31129;44.810;10.334;2023-03-23T07:55:42;23.88;;;13.82;;
45392;SDS011;31129;44.810;10.334;2023-03-23T07:58:37;23.30;;;11.98;;
45392;SDS011;31129;44.810;10.334;2023-03-23T08:01:02;26.42;;;13.00;;
45392;SDS011;31129;44.810;10.334;2023-03-23T08:03:30;28.17;;;13.23;;
45392;SDS011;31129;44.810;10.334;2023-03-23T08:06:25;22.65;;;12.60;;
45392;SDS011;31129;44.810;10.334;2023-03-23T08:09:11;21.92;;;12.68;;
45392;SDS011;31129;44.810;10.334;2023-03-23T08:11:56;24.80;;;11.30;;
45392;SDS011;31129;44.810;10.334;2023-03-23T08:14:45;26.15;;;11.85;;
45392;SDS011;31129;44.810;10.334;2023-03-23T08:17:33;22.02;;;12.98;;
45392;SDS011;31129;44.810;10.334;2023-03-23T08:20:18;19.85;;;11.55;;
45392;SDS011;31129;44.810;10.334;2023-03-23T08:22:59;20.92;;;11.13;;
45392;SDS011;31129;44.810;10.334;2023-03-23T08:25:59;19.20;;;12.15;;
45392;SDS011;31129;44.810;10.334;2023-03-23T08:28:40;26.77;;;13.13;;
45392;SDS011;31129;44.810;10.334;2023-03-23T08:31:40;22.90;;;11.55;;
45392;SDS011;31129;44.810;10.334;2023-03-23T08:34:21;22.85;;;12.25;;
45392;SDS011;31129;44.810;10.334;2023-03-23T08:37:10;20.77;;;12.18;;
45392;SDS011;31129;44.810;10.334;2023-03-23T08:39:55;26.33;;;11.43;;
45392;SDS011;31129;44.810;10.334;2023-03-23T08:42:28;22.90;;;11.85;;
45392;SDS011;31129;44.810;10.334;2023-03-23T08:45:23;26.45;;;12.55;;
45392;SDS011;31129;44.810;10.334;2023-03-23T08:48:08;18.35;;;11.32;;
45392;SDS011;31129;44.810;10.334;2023-03-23T08:50:39;19.10;;;12.80;;
45392;SDS011;31129;44.810;10.334;2023-03-23T08:53:19;21.25;;;11.38;;
45392;SDS011;31129;44.810;10.334;2023-03-23T08:55:48;19.13;;;11.20;;
45392;SDS011;31129;44.810;10.334;2023-03-23T08:58:14;20.63;;;12.32;;
45392;SDS011;31129;44.810;10.334;2023-03-23T09:01:07;21.48;;;12.68;;
45392;SDS011;31129;44.810;10.334;2023-03-23T09:03:53;16.63;;;12.05;;
45392;SDS011;31129;44.810;10.334;2023-03-23T09:06:40;18.45;;;13.00;;
45392;SDS011;31129;44.810;10.334;2023-03-23T09:09:06;15.70;;;11.18;;
45392;SDS011;31129;44.810;10.334;2023-03-23T09:11:32;20.60;;;11.75;;
45392;SDS011;31129;44.810;10.334;2023-03-23T09:13:59;19.40;;;11.30;;
45392;SDS011;31129;44.810;10.334;2023-03-23T09:16:28;19.65;;;11.85;;
45392;SDS011;31129;44.810;10.334;2023-03-23T09:18:54;20.27;;;12.32;;
45392;SDS011;31129;44.810;10.334;2023-03-23T09:21:22;17.80;;;11.02;;
45392;SDS011;31129;44.810;10.334;2023-03-23T09:23:48;20.63;;;11.55;;
45392;SDS011;31129;44.810;10.334;2023-03-23T09:26:14;18.60;;;11.60;;
45392;SDS011;31129;44.810;10.334;2023-03-23T09:28:40;17.35;;;11.30;;
45392;SDS011;31129;44.810;10.334;2023-03-23T09:31:05;18.92;;;11.63;;
45392;SDS011;31129;44.810;10.334;2023-03-23T09:33:31;18.95;;;11.30;;
45392;SDS011;31129;44.810;10.334;2023-03-23T09:36:00;20.42;;;11.98;;
45392;SDS011;31129;44.810;10.334;2023-03-23T09:38:27;20.93;;;10.97;;
45392;SDS011;31129;44.810;10.334;2023-03-23T09:40:54;21.83;;;10.38;;
45392;SDS011;31129;44.810;10.334;2023-03-23T09:48:58;18.77;;;10.60;;
45392;SDS011;31129;44.810;10.334;2023-03-23T09:54:09;15.77;;;10.73;;
45392;SDS011;31129;44.810;10.334;2023-03-23T09:56:36;16.52;;;9.35;;
45392;SDS011;31129;44.810;10.334;2023-03-23T10:01:35;13.82;;;9.68;;
45392;SDS011;31129;44.810;10.334;2023-03-23T10:06:59;21.00;;;10.40;;
45392;SDS011;31129;44.810;10.334;2023-03-23T10:09:31;12.57;;;9.40;;
45392;SDS011;31129;44.810;10.334;2023-03-23T10:17:36;18.48;;;12.75;;
45392;SDS011;31129;44.810;10.334;2023-03-23T10:22:39;18.20;;;12.50;;
45392;SDS011;31129;44.810;10.334;2023-03-23T10:30:30;18.27;;;10.35;;
45392;SDS011;31129;44.810;10.334;2023-03-23T10:33:04;20.77;;;11.25;;
45392;SDS011;31129;44.810;10.334;2023-03-23T10:38:25;17.58;;;10.43;;
45392;SDS011;31129;44.810;10.334;2023-03-23T10:41:06;18.40;;;9.73;;
45392;SDS011;31129;44.810;10.334;2023-03-23T10:43:39;13.27;;;9.32;;
45392;SDS011;31129;44.810;10.334;2023-03-23T10:46:12;16.60;;;9.65;;
45392;SDS011;31129;44.810;10.334;2023-03-23T10:48:47;14.30;;;10.13;;
45392;SDS011;31129;44.810;10.334;2023-03-23T10:53:45;14.88;;;10.20;;
45392;SDS011;31129;44.810;10.334;2023-03-23T10:56:57;16.98;;;10.52;;
45392;SDS011;31129;44.810;10.334;2023-03-23T10:59:13;16.73;;;10.70;;
45392;SDS011;31129;44.810;10.334;2023-03-23T11:01:55;15.30;;;10.32;;
45392;SDS011;31129;44.810;10.334;2023-03-23T11:04:24;15.18;;;10.68;;
45392;SDS011;31129;44.810;10.334;2023-03-23T11:06:51;18.65;;;10.65;;
45392;SDS011;31129;44.810;10.334;2023-03-23T11:09:33;20.05;;;10.77;;
45392;SDS011;31129;44.810;10.334;2023-03-23T11:12:03;16.23;;;9.48;;
45392;SDS011;31129;44.810;10.334;2023-03-23T11:14:33;18.63;;;10.32;;
45392;SDS011;31129;44.810;10.334;2023-03-23T11:17:04;17.65;;;10.32;;
45392;SDS011;31129;44.810;10.334;2023-03-23T11:19:35;16.00;;;10.70;;
45392;SDS011;31129;44.810;10.334;2023-03-23T11:24:31;17.67;;;10.65;;
45392;SDS011;31129;44.810;10.334;2023-03-23T11:26:59;13.45;;;9.85;;
45392;SDS011;31129;44.810;10.334;2023-03-23T11:29:26;13.05;;;9.00;;
45392;SDS011;31129;44.810;10.334;2023-03-23T11:32:04;16.63;;;9.85;;
45392;SDS011;31129;44.810;10.334;2023-03-23T11:39:48;18.50;;;10.82;;
45392;SDS011;31129;44.810;10.334;2023-03-23T11:42:23;13.10;;;9.20;;
45392;SDS011;31129;44.810;10.334;2023-03-23T11:44:54;14.65;;;9.90;;
45392;SDS011;31129;44.810;10.334;2023-03-23T11:50:14;12.07;;;8.65;;
45392;SDS011;31129;44.810;10.334;2023-03-23T11:57:55;16.33;;;8.77;;
45392;SDS011;31129;44.810;10.334;2023-03-23T12:00:26;15.80;;;9.45;;
45392;SDS011;31129;44.810;10.334;2023-03-23T12:25:51;11.73;;;8.25;;
45392;SDS011;31129;44.810;10.334;2023-03-23T12:44:46;13.68;;;8.48;;
45392;SDS011;31129;44.810;10.334;2023-03-23T12:58:19;12.43;;;8.85;;
45392;SDS011;31129;44.810;10.334;2023-03-23T13:01:01;15.95;;;8.77;;
45392;SDS011;31129;44.810;10.334;2023-03-23T13:03:52;12.80;;;8.40;;
45392;SDS011;31129;44.810;10.334;2023-03-23T13:09:10;15.55;;;7.93;;
45392;SDS011;31129;44.810;10.334;2023-03-23T13:11:41;10.85;;;7.72;;
45392;SDS011;31129;44.810;10.334;2023-03-23T13:16:59;13.63;;;8.80;;
45392;SDS011;31129;44.810;10.334;2023-03-23T13:20:12;15.70;;;8.32;;
45392;SDS011;31129;44.810;10.334;2023-03-23T13:22:20;16.30;;;8.02;;
45392;SDS011;31129;44.810;10.334;2023-03-23T13:24:52;11.60;;;8.73;;
45392;SDS011;31129;44.810;10.334;2023-03-23T13:27:24;13.40;;;9.38;;
45392;SDS011;31129;44.810;10.334;2023-03-23T13:29:53;12.98;;;9.02;;
45392;SDS011;31129;44.810;10.334;2023-03-23T13:32:19;12.13;;;8.98;;
45392;SDS011;31129;44.810;10.334;2023-03-23T13:34:46;14.13;;;8.55;;
45392;SDS011;31129;44.810;10.334;2023-03-23T13:39:52;15.70;;;8.88;;
45392;SDS011;31129;44.810;10.334;2023-03-23T13:57:54;14.02;;;9.15;;
45392;SDS011;31129;44.810;10.334;2023-03-23T14:03:36;15.25;;;10.20;;
45392;SDS011;31129;44.810;10.334;2023-03-23T14:09:03;13.88;;;10.15;;
45392;SDS011;31129;44.810;10.334;2023-03-23T14:11:30;19.27;;;10.77;;
45392;SDS011;31129;44.810;10.334;2023-03-23T14:14:01;17.17;;;10.30;;
45392;SDS011;31129;44.810;10.334;2023-03-23T14:19:01;17.70;;;10.77;;
45392;SDS011;31129;44.810;10.334;2023-03-23T14:21:39;15.52;;;10.95;;
45392;SDS011;31129;44.810;10.334;2023-03-23T14:24:10;13.80;;;10.50;;
45392;SDS011;31129;44.810;10.334;2023-03-23T14:26:37;13.75;;;9.00;;
45392;SDS011;31129;44.810;10.334;2023-03-23T14:29:03;15.70;;;10.40;;
45392;SDS011;31129;44.810;10.334;2023-03-23T14:31:30;14.95;;;9.38;;
45392;SDS011;31129;44.810;10.334;2023-03-23T14:33:56;13.82;;;8.65;;
45392;SDS011;31129;44.810;10.334;2023-03-23T14:36:28;17.50;;;11.18;;
45392;SDS011;31129;44.810;10.334;2023-03-23T14:41:47;17.17;;;10.43;;
45392;SDS011;31129;44.810;10.334;2023-03-23T14:44:15;16.50;;;12.43;;
45392;SDS011;31129;44.810;10.334;2023-03-23T14:46:43;18.20;;;12.48;;
45392;SDS011;31129;44.810;10.334;2023-03-23T14:49:10;17.08;;;12.20;;
45392;SDS011;31129;44.810;10.334;2023-03-23T14:51:46;20.10;;;12.65;;
45392;SDS011;31129;44.810;10.334;2023-03-23T14:54:20;19.20;;;12.87;;
45392;SDS011;31129;44.810;10.334;2023-03-23T14:56:47;21.02;;;11.75;;
45392;SDS011;31129;44.810;10.334;2023-03-23T14:59:12;17.38;;;11.43;;
45392;SDS011;31129;44.810;10.334;2023-03-23T15:01:38;16.33;;;10.90;;
45392;SDS011;31129;44.810;10.334;2023-03-23T15:06:39;17.40;;;11.52;;
45392;SDS011;31129;44.810;10.334;2023-03-23T15:09:11;20.90;;;12.80;;
45392;SDS011;31129;44.810;10.334;2023-03-23T15:11:40;20.05;;;12.88;;
45392;SDS011;31129;44.810;10.334;2023-03-23T15:14:17;19.38;;;14.10;;
45392;SDS011;31129;44.810;10.334;2023-03-23T15:16:52;16.48;;;12.65;;
45392;SDS011;31129;44.810;10.334;2023-03-23T15:24:33;23.25;;;13.52;;
45392;SDS011;31129;44.810;10.334;2023-03-23T15:27:13;19.73;;;13.48;;
45392;SDS011;31129;44.810;10.334;2023-03-23T15:29:49;20.75;;;13.20;;
45392;SDS011;31129;44.810;10.334;2023-03-23T15:32:20;18.92;;;12.82;;
45392;SDS011;31129;44.810;10.334;2023-03-23T15:34:47;20.92;;;14.68;;
45392;SDS011;31129;44.810;10.334;2023-03-23T15:37:28;20.63;;;14.25;;
45392;SDS011;31129;44.810;10.334;2023-03-23T15:39:56;26.30;;;14.93;;
45392;SDS011;31129;44.810;10.334;2023-03-23T15:47:51;21.20;;;14.82;;
45392;SDS011;31129;44.810;10.334;2023-03-23T15:50:32;22.05;;;14.63;;
45392;SDS011;31129;44.810;10.334;2023-03-23T15:53:00;21.23;;;15.05;;
45392;SDS011;31129;44.810;10.334;2023-03-23T15:55:37;22.73;;;14.77;;
45392;SDS011;31129;44.810;10.334;2023-03-23T15:58:10;21.48;;;13.48;;
45392;SDS011;31129;44.810;10.334;2023-03-23T16:00:37;18.58;;;12.52;;
45392;SDS011;31129;44.810;10.334;2023-03-23T16:03:04;23.00;;;15.53;;
45392;SDS011;31129;44.810;10.334;2023-03-23T16:05:32;21.88;;;15.10;;
45392;SDS011;31129;44.810;10.334;2023-03-23T16:07:58;20.17;;;14.25;;
45392;SDS011;31129;44.810;10.334;2023-03-23T16:10:24;21.25;;;14.75;;
45392;SDS011;31129;44.810;10.334;2023-03-23T16:12:51;20.38;;;15.02;;
45392;SDS011;31129;44.810;10.334;2023-03-23T16:15:16;21.88;;;13.63;;
45392;SDS011;31129;44.810;10.334;2023-03-23T16:17:42;20.83;;;14.15;;
45392;SDS011;31129;44.810;10.334;2023-03-23T16:20:18;23.13;;;14.60;;
45392;SDS011;31129;44.810;10.334;2023-03-23T16:22:46;23.50;;;14.20;;
45392;SDS011;31129;44.810;10.334;2023-03-23T16:25:12;23.42;;;14.60;;
45392;SDS011;31129;44.810;10.334;2023-03-23T16:27:39;20.02;;;13.43;;
45392;SDS011;31129;44.810;10.334;2023-03-23T16:30:11;17.98;;;12.48;;
45392;SDS011;31129;44.810;10.334;2023-03-23T16:33:03;23.23;;;14.85;;
45392;SDS011;31129;44.810;10.334;2023-03-23T16:35:28;24.15;;;15.20;;
45392;SDS011;31129;44.810;10.334;2023-03-23T16:37:54;27.67;;;15.00;;
45392;SDS011;31129;44.810;10.334;2023-03-23T16:40:21;21.23;;;14.88;;
45392;SDS011;31129;44.810;10.334;2023-03-23T16:42:47;23.20;;;14.65;;
45392;SDS011;31129;44.810;10.334;2023-03-23T16:45:14;22.77;;;15.23;;
45392;SDS011;31129;44.810;10.334;2023-03-23T16:47:40;26.38;;;15.27;;
45392;SDS011;31129;44.810;10.334;2023-03-23T16:50:07;19.55;;;13.93;;
45392;SDS011;31129;44.810;10.334;2023-03-23T16:52:38;20.77;;;13.90;;
45392;SDS011;31129;44.810;10.334;2023-03-23T16:55:05;24.73;;;14.60;;
45392;SDS011;31129;44.810;10.334;2023-03-23T16:57:32;23.63;;;14.40;;
45392;SDS011;31129;44.810;10.334;2023-03-23T17:00:03;21.83;;;14.25;;
45392;SDS011;31129;44.810;10.334;2023-03-23T17:02:30;22.20;;;14.40;;
45392;SDS011;31129;44.810;10.334;2023-03-23T17:04:56;20.45;;;13.98;;
45392;SDS011;31129;44.810;10.334;2023-03-23T17:07:23;26.35;;;14.57;;
45392;SDS011;31129;44.810;10.334;2023-03-23T17:09:49;26.38;;;13.52;;
45392;SDS011;31129;44.810;10.334;2023-03-23T17:12:15;29.00;;;13.13;;
45392;SDS011;31129;44.810;10.334;2023-03-23T17:14:41;25.42;;;13.48;;
45392;SDS011;31129;44.810;10.334;2023-03-23T17:17:06;25.02;;;11.93;;
45392;SDS011;31129;44.810;10.334;2023-03-23T17:19:32;23.33;;;12.95;;
45392;SDS011;31129;44.810;10.334;2023-03-23T17:21:58;29.92;;;13.18;;
45392;SDS011;31129;44.810;10.334;2023-03-23T17:24:23;30.08;;;13.50;;
45392;SDS011;31129;44.810;10.334;2023-03-23T17:26:49;22.92;;;12.27;;
45392;SDS011;31129;44.810;10.334;2023-03-23T17:29:14;23.15;;;11.98;;
45392;SDS011;31129;44.810;10.334;2023-03-23T17:31:40;22.17;;;12.07;;